Time;durP1;ratioP1;P1;durP2;ratioP2;P2;SDS_P1;SDS_P2;PMS_P1;PMS_P2;Temp;Humidity;BMP_temperature;BMP_pressure;BME280_temperature;BME280_humidity;BME280_pressure;Samples;Min_cycle;Max_cycle;Signal;HPM_P1;HPM_P2
2022/06/13 00:01:14;;;;;;;;;;;25.80;43.40;;;;;;1611983;72;1340;-59
2022/06/13 00:03:16;;;;;;;;;;;25.70;43.50;;;;;;1610196;72;758;-58
2022/06/13 00:05:18;;;;;;;;;;;25.70;43.40;;;;;;1610442;72;784;-57
2022/06/13 00:07:19;;;;;;;;;;;25.70;43.40;;;;;;1609192;72;1108;-58
2022/06/13 00:09:21;;;;;;;;;;;25.70;43.60;;;;;;1609741;72;765;-60
2022/06/13 00:11:24;;;;;;;;;;;25.70;43.60;;;;;;1602944;72;809;-59
2022/06/13 00:13:26;;;;;;;;;;;25.70;43.60;;;;;;1606465;72;726;-59
2022/06/13 00:15:28;;;;;;;;;;;25.70;43.70;;;;;;1608515;72;1940;-61
2022/06/13 00:17:29;;;;;;;;;;;25.70;43.70;;;;;;1611274;72;1123;-60
2022/06/13 00:19:31;;;;;;;;;;;25.70;43.80;;;;;;1613131;72;729;-60
2022/06/13 00:21:34;;;;;;;;;;;25.70;43.70;;;;;;1613051;72;668;-58
2022/06/13 00:23:37;;;;;;;;;;;25.80;43.60;;;;;;1609849;72;773;-59
2022/06/13 00:25:39;;;;;;;;;;;25.80;43.70;;;;;;1610985;72;1103;-60
2022/06/13 00:27:40;;;;;;;;;;;25.80;43.70;;;;;;1602299;72;752;-56
2022/06/13 00:29:44;;;;;;;;;;;25.80;43.70;;;;;;1604983;72;1530;-59
2022/06/13 00:31:46;;;;;;;;;;;25.80;43.70;;;;;;1622276;72;818;-58
2022/06/13 00:33:48;;;;;;;;;;;25.80;43.70;;;;;;1613912;72;834;-58
2022/06/13 00:35:50;;;;;;;;;;;25.80;43.70;;;;;;1610793;72;1928;-60
2022/06/13 00:37:52;;;;;;;;;;;25.70;43.80;;;;;;1609095;72;774;-60
2022/06/13 00:39:53;;;;;;;;;;;25.70;43.90;;;;;;1610429;72;777;-61
2022/06/13 00:41:55;;;;;;;;;;;25.80;43.90;;;;;;1603285;72;764;-61
2022/06/13 00:43:58;;;;;;;;;;;25.80;43.90;;;;;;1602653;72;1255;-60
2022/06/13 00:46:00;;;;;;;;;;;25.80;43.90;;;;;;1614660;72;1164;-60
2022/06/13 00:48:02;;;;;;;;;;;25.80;44.00;;;;;;1600905;72;2149;-57
2022/06/13 00:50:05;;;;;;;;;;;25.70;44.00;;;;;;1585278;74;717;-54
2022/06/13 00:52:10;;;;;;;;;;;25.80;44.00;;;;;;1585954;74;713;-54
2022/06/13 00:54:13;;;;;;;;;;;25.70;44.10;;;;;;1585287;73;726;-56
2022/06/13 00:56:15;;;;;;;;;;;25.80;44.10;;;;;;1565371;73;1942;-55
2022/06/13 00:58:17;;;;;;;;;;;25.80;44.10;;;;;;1550707;75;1411;-55
2022/06/13 01:00:19;;;;;;;;;;;25.80;44.20;;;;;;1554757;75;786;-53
2022/06/13 01:02:21;;;;;;;;;;;25.80;44.20;;;;;;1547005;75;1060;-55
2022/06/13 01:04:23;;;;;;;;;;;25.80;44.20;;;;;;1521085;77;716;-52
2022/06/13 01:06:25;;;;;;;;;;;25.80;44.20;;;;;;1522221;76;1141;-58
2022/06/13 01:08:28;;;;;;;;;;;25.80;44.20;;;;;;1515209;77;917;-55
2022/06/13 01:12:50;;;;;;;;;;;25.80;44.20;;;;;;1536499;75;1638;-59
2022/06/13 01:15:10;;;;;;;;;;;25.70;44.20;;;;;;1544270;75;720;-58
2022/06/13 01:17:22;;;;;;;;;;;25.70;44.20;;;;;;1526343;75;1936;-56
2022/06/13 01:19:32;;;;;;;;;;;25.80;44.20;;;;;;1528907;76;757;-55
2022/06/13 01:21:44;;;;;;;;;;;25.80;44.20;;;;;;1543054;75;696;-54
2022/06/13 01:23:48;;;;;;;;;;;25.70;44.20;;;;;;1548920;75;1839;-55
2022/06/13 01:25:54;;;;;;;;;;;25.70;44.20;;;;;;1543107;75;1416;-54
2022/06/13 01:28:01;;;;;;;;;;;25.70;44.30;;;;;;1548594;75;724;-53
2022/06/13 01:30:07;;;;;;;;;;;25.70;44.40;;;;;;1544487;75;696;-53
2022/06/13 01:32:10;;;;;;;;;;;25.70;44.40;;;;;;1536809;75;818;-55
2022/06/13 01:34:20;;;;;;;;;;;25.80;44.30;;;;;;1538360;75;708;-54
2022/06/13 01:36:36;;;;;;;;;;;25.80;44.40;;;;;;1532089;75;1974;-55
2022/06/13 01:38:42;;;;;;;;;;;25.70;44.40;;;;;;1540310;75;779;-55
2022/06/13 01:40:45;;;;;;;;;;;25.70;44.40;;;;;;1542340;75;1660;-54
2022/06/13 01:42:49;;;;;;;;;;;25.80;44.40;;;;;;1520099;77;1224;-52
2022/06/13 01:45:10;;;;;;;;;;;25.70;44.30;;;;;;1532375;75;1850;-55
2022/06/13 01:47:32;;;;;;;;;;;25.70;44.40;;;;;;1527572;75;1126;-55
2022/06/13 01:49:42;;;;;;;;;;;25.70;44.40;;;;;;1543983;75;801;-56
2022/06/13 01:51:48;;;;;;;;;;;25.70;44.50;;;;;;1511767;77;1176;-56
2022/06/13 01:53:55;;;;;;;;;;;25.70;44.30;;;;;;1544631;75;1556;-55
2022/06/13 01:56:07;;;;;;;;;;;25.60;44.40;;;;;;1547047;74;1955;-55
2022/06/13 01:58:11;;;;;;;;;;;25.60;44.40;;;;;;1540942;75;825;-57
2022/06/13 02:00:14;;;;;;;;;;;25.70;44.40;;;;;;1542313;75;779;-56
2022/06/13 02:02:31;;;;;;;;;;;25.60;44.50;;;;;;1551918;75;669;-58
2022/06/13 02:04:35;;;;;;;;;;;25.60;44.50;;;;;;1528756;75;721;-55
2022/06/13 02:06:38;;;;;;;;;;;25.70;44.50;;;;;;1528759;75;1147;-54
2022/06/13 02:08:49;;;;;;;;;;;25.60;44.60;;;;;;1547938;75;1437;-57
2022/06/13 02:10:55;;;;;;;;;;;25.60;44.60;;;;;;1534464;75;1712;-59
2022/06/13 02:13:04;;;;;;;;;;;25.60;44.60;;;;;;1536343;75;1036;-55
2022/06/13 02:15:14;;;;;;;;;;;25.60;44.60;;;;;;1538385;75;1464;-53
2022/06/13 02:17:17;;;;;;;;;;;25.60;44.70;;;;;;1540599;75;1943;-53
2022/06/13 02:19:24;;;;;;;;;;;25.60;44.70;;;;;;1527769;75;766;-56
2022/06/13 02:21:27;;;;;;;;;;;25.60;44.80;;;;;;1528528;75;1597;-58
2022/06/13 02:23:29;;;;;;;;;;;25.60;44.70;;;;;;1532236;75;2027;-55
2022/06/13 02:25:32;;;;;;;;;;;25.60;44.70;;;;;;1541616;75;719;-55
2022/06/13 02:27:35;;;;;;;;;;;25.60;44.70;;;;;;1532992;75;935;-56
2022/06/13 02:29:39;;;;;;;;;;;25.60;44.80;;;;;;1532010;75;777;-55
2022/06/13 02:31:51;;;;;;;;;;;25.60;44.70;;;;;;1536274;75;1712;-53
2022/06/13 02:33:54;;;;;;;;;;;25.70;44.60;;;;;;1520121;75;1046;-55
2022/06/13 02:35:58;;;;;;;;;;;25.60;44.60;;;;;;1537859;75;1333;-55
2022/06/13 02:38:04;;;;;;;;;;;25.60;44.70;;;;;;1530160;75;1943;-53
2022/06/13 02:40:15;;;;;;;;;;;25.60;44.70;;;;;;1536583;75;774;-56
2022/06/13 02:42:16;;;;;;;;;;;25.50;44.80;;;;;;1538939;75;1165;-53
2022/06/13 02:44:19;;;;;;;;;;;25.60;44.80;;;;;;1542550;75;1804;-54
2022/06/13 02:46:26;;;;;;;;;;;25.60;44.80;;;;;;1543484;75;1690;-56
2022/06/13 02:48:41;;;;;;;;;;;25.60;44.80;;;;;;1516719;75;1149;-57
2022/06/13 02:50:45;;;;;;;;;;;25.60;44.80;;;;;;1500286;75;1558;-56
2022/06/13 02:52:51;;;;;;;;;;;25.60;44.90;;;;;;1543256;75;1875;-52
2022/06/13 02:54:54;;;;;;;;;;;25.60;44.90;;;;;;1536042;75;728;-55
2022/06/13 02:59:22;;;;;;;;;;;25.60;45.00;;;;;;1535912;75;1677;-57
2022/06/13 03:01:26;;;;;;;;;;;25.70;45.00;;;;;;1536996;75;1844;-54
2022/06/13 03:03:29;;;;;;;;;;;25.70;45.00;;;;;;1533508;75;783;-56
2022/06/13 03:05:47;;;;;;;;;;;25.70;45.00;;;;;;1533347;75;1661;-57
2022/06/13 03:07:53;;;;;;;;;;;25.60;45.00;;;;;;1530897;75;730;-56
2022/06/13 03:10:09;;;;;;;;;;;25.70;45.10;;;;;;1543164;75;1119;-55
2022/06/13 03:12:17;;;;;;;;;;;25.70;45.20;;;;;;1537984;75;728;-57
2022/06/13 03:14:21;;;;;;;;;;;25.60;45.10;;;;;;1535784;75;721;-57
2022/06/13 03:16:27;;;;;;;;;;;25.60;45.10;;;;;;1548365;75;1953;-54
2022/06/13 03:18:31;;;;;;;;;;;25.60;45.20;;;;;;1528233;75;1526;-55
2022/06/13 03:20:34;;;;;;;;;;;25.60;45.20;;;;;;1540663;75;705;-57
2022/06/13 03:22:38;;;;;;;;;;;25.60;45.20;;;;;;1548569;75;1830;-56
2022/06/13 03:24:47;;;;;;;;;;;25.60;45.10;;;;;;1554302;75;1813;-55
2022/06/13 03:26:51;;;;;;;;;;;25.60;45.20;;;;;;1513625;75;1477;-54
2022/06/13 03:28:54;;;;;;;;;;;25.60;45.20;;;;;;1535325;75;1401;-55
2022/06/13 03:30:57;;;;;;;;;;;25.60;45.30;;;;;;1533777;75;695;-55
2022/06/13 03:35:21;;;;;;;;;;;25.60;45.20;;;;;;1535659;75;1621;-56
2022/06/13 03:37:24;;;;;;;;;;;25.50;45.20;;;;;;1534528;75;1933;-54
2022/06/13 03:39:39;;;;;;;;;;;25.50;45.30;;;;;;1542196;75;1679;-55
2022/06/13 03:41:43;;;;;;;;;;;25.60;45.30;;;;;;1529812;75;2032;-54
2022/06/13 03:43:46;;;;;;;;;;;25.60;45.40;;;;;;1526233;75;1754;-54
2022/06/13 03:45:56;;;;;;;;;;;25.50;45.40;;;;;;1537697;74;1765;-54
2022/06/13 03:47:59;;;;;;;;;;;25.50;45.40;;;;;;1542532;75;1703;-57
2022/06/13 03:50:03;;;;;;;;;;;25.50;45.40;;;;;;1526734;75;824;-55
2022/06/13 03:52:06;;;;;;;;;;;25.50;45.50;;;;;;1540232;75;964;-56
2022/06/13 03:54:10;;;;;;;;;;;25.50;45.50;;;;;;1547279;75;686;-57
2022/06/13 03:56:16;;;;;;;;;;;25.50;45.50;;;;;;1545353;75;1098;-55
2022/06/13 03:58:20;;;;;;;;;;;25.50;45.50;;;;;;1544793;75;1931;-54
2022/06/13 04:00:26;;;;;;;;;;;25.50;45.50;;;;;;1536265;75;1468;-52
2022/06/13 04:02:29;;;;;;;;;;;25.50;45.50;;;;;;1536514;75;1646;-56
2022/06/13 04:04:33;;;;;;;;;;;25.50;45.50;;;;;;1528877;75;733;-54
2022/06/13 04:06:42;;;;;;;;;;;25.50;45.60;;;;;;1535355;75;1124;-53
2022/06/13 04:08:44;;;;;;;;;;;25.50;45.60;;;;;;1541595;75;752;-54
2022/06/13 04:10:47;;;;;;;;;;;25.50;45.60;;;;;;1532100;75;830;-55
2022/06/13 04:12:54;;;;;;;;;;;25.50;45.60;;;;;;1530244;75;1562;-53
2022/06/13 04:15:09;;;;;;;;;;;25.50;45.70;;;;;;1528621;76;1491;-53
2022/06/13 04:17:19;;;;;;;;;;;25.40;45.70;;;;;;1544686;75;1939;-54
2022/06/13 04:19:39;;;;;;;;;;;25.50;45.70;;;;;;1538277;75;1436;-55
2022/06/13 04:21:58;;;;;;;;;;;25.50;45.70;;;;;;1536280;75;775;-55
2022/06/13 04:24:04;;;;;;;;;;;25.50;45.60;;;;;;1523805;75;725;-54
2022/06/13 04:26:13;;;;;;;;;;;25.50;45.70;;;;;;1538071;75;1142;-53
2022/06/13 04:28:34;;;;;;;;;;;25.50;45.70;;;;;;1535441;75;1433;-56
2022/06/13 04:30:35;;;;;;;;;;;25.60;45.70;;;;;;1546548;75;730;-54
2022/06/13 04:32:39;;;;;;;;;;;25.50;45.70;;;;;;1524806;75;808;-55
2022/06/13 04:34:42;;;;;;;;;;;25.60;45.60;;;;;;1531581;75;1007;-54
2022/06/13 04:36:44;;;;;;;;;;;25.50;45.70;;;;;;1536630;75;1930;-56
2022/06/13 04:38:48;;;;;;;;;;;25.50;45.60;;;;;;1536494;75;719;-54
2022/06/13 04:40:51;;;;;;;;;;;25.50;45.60;;;;;;1528856;75;1930;-54
2022/06/13 04:42:54;;;;;;;;;;;25.50;45.70;;;;;;1529568;75;1779;-56
2022/06/13 04:44:57;;;;;;;;;;;25.50;45.70;;;;;;1531959;75;743;-55
2022/06/13 04:46:58;;;;;;;;;;;25.70;45.60;;;;;;1522125;75;1123;-57
2022/06/13 04:49:02;;;;;;;;;;;25.60;45.50;;;;;;1540124;75;740;-55
2022/06/13 04:51:05;;;;;;;;;;;25.70;45.40;;;;;;1529872;75;808;-55
2022/06/13 04:53:09;;;;;;;;;;;25.80;45.30;;;;;;1543402;75;1805;-53
2022/06/13 04:55:19;;;;;;;;;;;25.70;45.30;;;;;;1545479;75;718;-54
2022/06/13 04:57:20;;;;;;;;;;;25.70;45.20;;;;;;1538458;75;1983;-56
2022/06/13 04:59:22;;;;;;;;;;;25.70;45.30;;;;;;1544703;75;892;-56
2022/06/13 05:01:25;;;;;;;;;;;25.70;45.30;;;;;;1548476;75;767;-56
2022/06/13 05:03:27;;;;;;;;;;;25.70;45.30;;;;;;1534114;75;813;-55
2022/06/13 05:05:36;;;;;;;;;;;25.70;45.30;;;;;;1527893;76;736;-54
2022/06/13 05:07:37;;;;;;;;;;;25.70;45.20;;;;;;1547326;75;1984;-55
2022/06/13 05:09:43;;;;;;;;;;;25.70;45.20;;;;;;1539782;76;686;-56
2022/06/13 05:11:49;;;;;;;;;;;25.70;45.30;;;;;;1542479;76;1623;-55
2022/06/13 05:13:52;;;;;;;;;;;25.70;45.30;;;;;;1539385;75;716;-54
2022/06/13 05:15:58;;;;;;;;;;;25.80;45.30;;;;;;1558314;74;1124;-55
2022/06/13 05:18:02;;;;;;;;;;;25.80;45.00;;;;;;1534279;75;1905;-52
2022/06/13 05:20:08;;;;;;;;;;;25.70;45.10;;;;;;1539007;75;1725;-55
2022/06/13 05:22:24;;;;;;;;;;;25.60;45.20;;;;;;1550743;75;783;-53
2022/06/13 05:24:34;;;;;;;;;;;25.60;45.30;;;;;;1545870;75;1456;-57
2022/06/13 05:26:35;;;;;;;;;;;25.50;45.40;;;;;;1544206;75;1940;-56
2022/06/13 05:28:37;;;;;;;;;;;25.50;45.50;;;;;;1530568;75;722;-56
2022/06/13 05:30:41;;;;;;;;;;;25.50;45.50;;;;;;1540890;75;740;-55
2022/06/13 05:32:43;;;;;;;;;;;25.50;45.50;;;;;;1521108;75;693;-54
2022/06/13 05:34:45;;;;;;;;;;;25.40;45.60;;;;;;1529085;75;723;-57
2022/06/13 05:36:47;;;;;;;;;;;25.40;45.70;;;;;;1543314;75;1090;-57
2022/06/13 05:38:52;;;;;;;;;;;25.50;45.70;;;;;;1546108;75;1939;-53
2022/06/13 05:40:54;;;;;;;;;;;25.40;45.60;;;;;;1525250;75;788;-53
2022/06/13 05:42:56;;;;;;;;;;;25.40;45.60;;;;;;1534290;75;653;-53
2022/06/13 05:44:58;;;;;;;;;;;25.40;45.70;;;;;;1529676;75;851;-54
2022/06/13 05:47:00;;;;;;;;;;;25.40;45.70;;;;;;1543253;75;1181;-54
2022/06/13 05:49:01;;;;;;;;;;;25.40;45.80;;;;;;1538483;75;703;-55
2022/06/13 05:51:03;;;;;;;;;;;25.40;45.80;;;;;;1546071;75;801;-54
2022/06/13 05:53:05;;;;;;;;;;;25.40;45.80;;;;;;1540758;75;1559;-51
2022/06/13 05:55:08;;;;;;;;;;;25.30;45.80;;;;;;1550252;75;780;-53
2022/06/13 05:57:10;;;;;;;;;;;25.30;46.00;;;;;;1541277;75;1153;-52
2022/06/13 05:59:11;;;;;;;;;;;25.30;46.00;;;;;;1549722;75;1943;-53
2022/06/13 06:01:13;;;;;;;;;;;25.30;46.00;;;;;;1550176;75;733;-55
2022/06/13 06:03:16;;;;;;;;;;;25.30;46.00;;;;;;1530577;75;842;-55
2022/06/13 06:05:18;;;;;;;;;;;25.30;46.20;;;;;;1532876;75;590;-53
2022/06/13 06:07:20;;;;;;;;;;;25.30;46.20;;;;;;1531725;75;1455;-52
2022/06/13 06:09:22;;;;;;;;;;;25.40;46.20;;;;;;1530975;75;742;-54
2022/06/13 06:11:24;;;;;;;;;;;25.30;46.20;;;;;;1536864;75;722;-55
2022/06/13 06:13:26;;;;;;;;;;;25.30;46.20;;;;;;1529906;75;725;-55
2022/06/13 06:15:28;;;;;;;;;;;25.30;46.20;;;;;;1539958;75;785;-56
2022/06/13 06:17:30;;;;;;;;;;;25.30;46.30;;;;;;1542952;75;1949;-54
2022/06/13 06:19:32;;;;;;;;;;;25.30;46.30;;;;;;1546526;75;710;-53
2022/06/13 06:21:34;;;;;;;;;;;25.30;46.30;;;;;;1546854;75;1522;-55
2022/06/13 06:23:36;;;;;;;;;;;25.30;46.30;;;;;;1534608;75;734;-53
2022/06/13 06:25:38;;;;;;;;;;;25.30;46.30;;;;;;1536948;75;1176;-55
2022/06/13 06:27:40;;;;;;;;;;;25.40;46.40;;;;;;1546751;75;736;-54
2022/06/13 06:29:42;;;;;;;;;;;25.30;46.30;;;;;;1537588;75;691;-57
2022/06/13 06:31:44;;;;;;;;;;;25.30;46.40;;;;;;1533785;75;1113;-57
2022/06/13 06:33:45;;;;;;;;;;;25.30;46.40;;;;;;1538598;75;705;-57
2022/06/13 06:35:48;;;;;;;;;;;25.30;46.30;;;;;;1549760;75;1467;-56
2022/06/13 06:37:50;;;;;;;;;;;25.30;46.40;;;;;;1543774;75;1917;-56
2022/06/13 06:39:52;;;;;;;;;;;25.30;46.40;;;;;;1536284;75;690;-57
2022/06/13 06:41:56;;;;;;;;;;;25.40;46.40;;;;;;1543977;75;771;-56
2022/06/13 06:43:57;;;;;;;;;;;25.40;46.40;;;;;;1534780;75;732;-55
2022/06/13 06:45:59;;;;;;;;;;;25.30;46.40;;;;;;1519231;75;1072;-54
2022/06/13 06:48:01;;;;;;;;;;;25.30;46.30;;;;;;1557852;71;225208;-67
2022/06/13 06:50:03;;;;;;;;;;;25.40;46.40;;;;;;1595827;73;1659;-67
2022/06/13 06:52:05;;;;;;;;;;;25.40;46.40;;;;;;1602408;73;749;-67
2022/06/13 07:00:58;;;;;;;;;;;25.20;46.50;;;;;;1590189;73;873;-67
2022/06/13 07:02:59;;;;;;;;;;;25.20;46.50;;;;;;1600197;73;1496;-64
2022/06/13 07:05:02;;;;;;;;;;;25.20;46.50;;;;;;1594996;73;774;-67
2022/06/13 07:07:04;;;;;;;;;;;25.20;46.50;;;;;;1598703;73;733;-67
2022/06/13 07:09:06;;;;;;;;;;;25.20;46.50;;;;;;1599184;73;1115;-67
2022/06/13 07:13:30;;;;;;;;;;;25.20;46.50;;;;;;1604009;73;1672;-68
2022/06/13 07:15:31;;;;;;;;;;;25.20;46.50;;;;;;1601592;73;641;-66
2022/06/13 07:17:33;;;;;;;;;;;25.20;46.50;;;;;;1602247;73;1559;-68
2022/06/13 07:19:35;;;;;;;;;;;25.20;46.50;;;;;;1597809;73;1927;-69
2022/06/13 07:21:37;;;;;;;;;;;25.20;46.60;;;;;;1592680;73;730;-68
2022/06/13 07:23:39;;;;;;;;;;;25.20;46.60;;;;;;1599883;73;791;-68
2022/06/13 07:25:41;;;;;;;;;;;25.20;46.50;;;;;;1600826;73;763;-64
2022/06/13 07:27:43;;;;;;;;;;;25.30;46.50;;;;;;1606302;73;1117;-66
2022/06/13 07:29:45;;;;;;;;;;;25.20;46.50;;;;;;1603761;73;728;-67
2022/06/13 07:31:54;;;;;;;;;;;25.30;46.60;;;;;;1599417;73;1570;-67
2022/06/13 07:33:55;;;;;;;;;;;25.20;46.50;;;;;;1605884;73;1655;-66
2022/06/13 07:35:57;;;;;;;;;;;25.20;46.60;;;;;;1604828;73;742;-67
2022/06/13 07:38:17;;;;;;;;;;;25.10;46.60;;;;;;1604010;73;1927;-69
2022/06/13 07:40:18;;;;;;;;;;;25.20;46.60;;;;;;1602421;73;695;-67
2022/06/13 07:42:20;;;;;;;;;;;25.10;46.60;;;;;;1600013;73;650;-67
2022/06/13 07:44:24;;;;;;;;;;;25.20;46.70;;;;;;1601417;73;723;-67
2022/06/13 07:46:27;;;;;;;;;;;25.20;46.70;;;;;;1605958;73;1548;-67
2022/06/13 07:48:29;;;;;;;;;;;25.10;46.70;;;;;;1611337;73;1145;-67
2022/06/13 07:50:31;;;;;;;;;;;25.10;46.70;;;;;;1599878;73;653;-67
2022/06/13 07:52:32;;;;;;;;;;;25.20;46.70;;;;;;1604620;73;702;-68
2022/06/13 07:54:34;;;;;;;;;;;25.20;46.70;;;;;;1603473;73;802;-68
2022/06/13 07:56:36;;;;;;;;;;;25.20;46.60;;;;;;1601778;73;704;-67
2022/06/13 07:58:38;;;;;;;;;;;25.20;46.60;;;;;;1600143;73;1936;-67
2022/06/13 08:00:40;;;;;;;;;;;25.20;46.50;;;;;;1600708;73;1607;-68
2022/06/13 08:02:42;;;;;;;;;;;25.20;46.60;;;;;;1606894;73;699;-67
2022/06/13 08:04:44;;;;;;;;;;;25.10;46.70;;;;;;1591273;73;767;-68
2022/06/13 08:06:46;;;;;;;;;;;25.10;46.70;;;;;;1599923;73;917;-67
2022/06/13 08:08:48;;;;;;;;;;;25.20;46.70;;;;;;1599659;73;1164;-66
2022/06/13 08:10:50;;;;;;;;;;;25.20;46.60;;;;;;1605316;73;743;-67
2022/06/13 08:12:52;;;;;;;;;;;25.20;46.70;;;;;;1596637;73;635;-69
2022/06/13 08:14:54;;;;;;;;;;;25.20;46.60;;;;;;1606045;73;1670;-67
2022/06/13 08:16:56;;;;;;;;;;;25.10;46.70;;;;;;1606294;73;793;-68
2022/06/13 08:18:58;;;;;;;;;;;25.10;46.70;;;;;;1602181;73;1955;-68
2022/06/13 08:21:00;;;;;;;;;;;25.10;46.70;;;;;;1591960;73;866;-68
2022/06/13 08:23:03;;;;;;;;;;;25.10;46.70;;;;;;1599843;73;704;-68
2022/06/13 08:25:05;;;;;;;;;;;25.10;46.70;;;;;;1605058;73;712;-68
2022/06/13 08:27:07;;;;;;;;;;;25.10;46.70;;;;;;1609599;73;1549;-68
2022/06/13 08:29:09;;;;;;;;;;;25.10;46.70;;;;;;1602007;73;1134;-68
2022/06/13 08:31:11;;;;;;;;;;;25.10;46.70;;;;;;1600763;73;708;-68
2022/06/13 08:33:13;;;;;;;;;;;25.10;46.70;;;;;;1597501;73;703;-68
2022/06/13 08:35:16;;;;;;;;;;;25.10;46.70;;;;;;1595176;73;716;-67
2022/06/13 08:37:17;;;;;;;;;;;25.10;46.70;;;;;;1592820;73;847;-65
2022/06/13 08:39:19;;;;;;;;;;;25.10;46.70;;;;;;1597753;73;1939;-68
2022/06/13 08:41:23;;;;;;;;;;;25.10;46.80;;;;;;1598628;73;1533;-67
2022/06/13 08:43:33;;;;;;;;;;;25.10;46.70;;;;;;1599298;73;633;-68
2022/06/13 08:45:39;;;;;;;;;;;25.10;46.70;;;;;;1583496;73;1035;-68
2022/06/13 08:47:46;;;;;;;;;;;25.10;46.70;;;;;;1600080;73;1560;-67
2022/06/13 08:49:55;;;;;;;;;;;25.10;46.70;;;;;;1604779;73;821;-67
2022/06/13 08:52:05;;;;;;;;;;;25.10;46.80;;;;;;1596027;73;2114;-68
2022/06/13 08:54:08;;;;;;;;;;;25.20;46.70;;;;;;1592778;73;769;-66
2022/06/13 08:56:11;;;;;;;;;;;25.20;46.70;;;;;;1598021;73;1623;-67
2022/06/13 08:58:21;;;;;;;;;;;25.10;46.70;;;;;;1596747;73;1170;-68
2022/06/13 09:00:24;;;;;;;;;;;25.20;46.70;;;;;;1599476;73;759;-66
2022/06/13 09:02:27;;;;;;;;;;;25.10;46.70;;;;;;1600533;73;748;-68
2022/06/13 09:04:30;;;;;;;;;;;25.10;46.70;;;;;;1599207;73;890;-69
2022/06/13 09:06:36;;;;;;;;;;;25.10;46.70;;;;;;1598340;73;723;-66
2022/06/13 09:08:40;;;;;;;;;;;25.10;46.70;;;;;;1598074;73;1137;-68
2022/06/13 09:10:44;;;;;;;;;;;25.10;46.70;;;;;;1597617;73;1556;-67
2022/06/13 09:13:04;;;;;;;;;;;25.10;46.70;;;;;;1597759;73;1095;-69
2022/06/13 09:15:10;;;;;;;;;;;25.10;46.70;;;;;;1603608;73;708;-69
2022/06/13 09:17:19;;;;;;;;;;;25.10;46.70;;;;;;1608543;73;817;-68
2022/06/13 09:19:22;;;;;;;;;;;25.10;46.70;;;;;;1601546;73;1954;-66
2022/06/13 09:21:32;;;;;;;;;;;25.10;46.70;;;;;;1597677;73;749;-68
2022/06/13 09:23:51;;;;;;;;;;;25.10;46.70;;;;;;1601774;73;1595;-65
2022/06/13 09:26:11;;;;;;;;;;;25.10;46.70;;;;;;1595424;73;721;-67
2022/06/13 09:28:20;;;;;;;;;;;25.10;46.70;;;;;;1591350;73;1138;-68
2022/06/13 09:30:27;;;;;;;;;;;25.10;46.70;;;;;;1598865;73;712;-67
2022/06/13 09:32:32;;;;;;;;;;;25.10;46.60;;;;;;1600259;73;787;-67
2022/06/13 09:34:35;;;;;;;;;;;25.10;46.60;;;;;;1597369;73;1858;-67
2022/06/13 09:36:38;;;;;;;;;;;25.10;46.60;;;;;;1590643;73;1685;-67
2022/06/13 09:38:42;;;;;;;;;;;25.10;46.60;;;;;;1599212;73;1939;-67
2022/06/13 09:40:51;;;;;;;;;;;25.10;46.50;;;;;;1600144;73;740;-67
2022/06/13 09:42:54;;;;;;;;;;;25.10;46.50;;;;;;1592151;73;2035;-67
2022/06/13 09:45:07;;;;;;;;;;;25.10;46.50;;;;;;1598380;73;749;-67
2022/06/13 09:47:10;;;;;;;;;;;25.10;46.40;;;;;;1592648;73;1799;-68
2022/06/13 09:49:36;;;;;;;;;;;25.10;46.40;;;;;;1597646;73;1122;-67
2022/06/13 09:51:35;;;;;;;;;;;25.10;46.40;;;;;;1595624;73;1629;-68
2022/06/13 09:53:44;;;;;;;;;;;25.10;46.30;;;;;;1601206;73;802;-67
2022/06/13 09:55:47;;;;;;;;;;;25.10;46.30;;;;;;1605217;73;738;-67
2022/06/13 09:57:51;;;;;;;;;;;25.10;46.30;;;;;;1595450;73;1181;-68
2022/06/13 10:00:06;;;;;;;;;;;25.10;46.30;;;;;;1600604;73;1898;-67
2022/06/13 10:02:16;;;;;;;;;;;25.10;46.30;;;;;;1587251;73;783;-69
2022/06/13 10:04:19;;;;;;;;;;;25.00;46.20;;;;;;1596552;73;1715;-68
2022/06/13 10:06:25;;;;;;;;;;;25.10;46.30;;;;;;1599617;73;1613;-68
2022/06/13 10:08:37;;;;;;;;;;;25.10;46.20;;;;;;1599488;73;1210;-68
2022/06/13 10:10:40;;;;;;;;;;;25.00;46.20;;;;;;1600613;73;739;-66
2022/06/13 10:12:51;;;;;;;;;;;25.10;46.10;;;;;;1599649;73;757;-66
2022/06/13 10:14:57;;;;;;;;;;;25.10;46.10;;;;;;1598316;73;1926;-67
2022/06/13 10:17:00;;;;;;;;;;;25.10;46.00;;;;;;1611577;73;757;-68
2022/06/13 10:19:04;;;;;;;;;;;25.10;45.90;;;;;;1605525;73;1937;-68
2022/06/13 10:21:07;;;;;;;;;;;25.20;45.70;;;;;;1600381;73;1564;-68
2022/06/13 10:23:20;;;;;;;;;;;25.20;45.50;;;;;;1598815;73;727;-67
2022/06/13 10:25:26;;;;;;;;;;;25.30;45.10;;;;;;1600948;73;701;-69
2022/06/13 10:27:42;;;;;;;;;;;25.20;44.70;;;;;;1603105;73;1064;-69
2022/06/13 10:30:04;;;;;;;;;;;25.20;44.40;;;;;;1601398;73;778;-69
2022/06/13 10:32:13;;;;;;;;;;;25.10;43.90;;;;;;1600684;73;1682;-67
2022/06/13 10:34:26;;;;;;;;;;;25.20;43.80;;;;;;1602181;73;1573;-68
2022/06/13 10:36:35;;;;;;;;;;;25.20;43.70;;;;;;1599041;73;2070;-68
2022/06/13 10:38:42;;;;;;;;;;;25.20;43.60;;;;;;1608430;73;1582;-69
2022/06/13 10:40:43;;;;;;;;;;;25.20;43.50;;;;;;1607006;73;1926;-68
2022/06/13 10:42:46;;;;;;;;;;;25.30;43.40;;;;;;1602075;73;741;-67
2022/06/13 10:44:48;;;;;;;;;;;25.30;43.20;;;;;;1602326;73;755;-68
2022/06/13 10:46:54;;;;;;;;;;;25.30;43.20;;;;;;1601204;73;793;-68
2022/06/13 10:48:58;;;;;;;;;;;25.20;42.90;;;;;;1602954;73;1586;-66
2022/06/13 10:51:00;;;;;;;;;;;25.20;42.70;;;;;;1602099;73;771;-66
2022/06/13 10:53:03;;;;;;;;;;;25.30;42.40;;;;;;1601924;73;708;-66
2022/06/13 10:55:10;;;;;;;;;;;25.20;42.10;;;;;;1598901;73;737;-67
2022/06/13 10:57:11;;;;;;;;;;;25.30;42.10;;;;;;1605142;73;1183;-67
2022/06/13 10:59:24;;;;;;;;;;;25.20;41.60;;;;;;1604053;73;1933;-68
2022/06/13 11:01:32;;;;;;;;;;;25.20;41.50;;;;;;1603348;73;782;-67
2022/06/13 11:03:31;;;;;;;;;;;25.20;41.30;;;;;;1601278;73;1557;-68
2022/06/13 11:05:33;;;;;;;;;;;25.20;41.10;;;;;;1593270;73;728;-67
2022/06/13 11:07:36;;;;;;;;;;;25.10;40.90;;;;;;1574881;74;1147;-66
2022/06/13 11:09:38;;;;;;;;;;;25.10;40.80;;;;;;1604111;73;695;-65
2022/06/13 11:11:40;;;;;;;;;;;25.10;40.70;;;;;;1602265;73;749;-66
2022/06/13 11:13:43;;;;;;;;;;;25.10;40.80;;;;;;1598291;73;746;-66
2022/06/13 11:22:41;;;;;;;;;;;25.10;40.30;;;;;;1581544;73;1078;-69
2022/06/13 11:24:47;;;;;;;;;;;25.20;40.20;;;;;;1595704;73;774;-66
2022/06/13 11:29:11;;;;;;;;;;;25.10;40.00;;;;;;1601680;73;1122;-68
2022/06/13 11:31:17;;;;;;;;;;;25.10;40.00;;;;;;1602123;73;1555;-67
2022/06/13 11:33:21;;;;;;;;;;;25.10;39.90;;;;;;1599387;73;742;-64
2022/06/13 11:35:24;;;;;;;;;;;25.10;39.90;;;;;;1594254;73;1733;-67
2022/06/13 11:37:26;;;;;;;;;;;25.20;39.70;;;;;;1580840;73;1248;-69
2022/06/13 11:39:32;;;;;;;;;;;25.10;39.50;;;;;;1592156;73;1937;-67
2022/06/13 11:41:42;;;;;;;;;;;25.10;39.40;;;;;;1601862;73;1772;-69
2022/06/13 11:43:54;;;;;;;;;;;25.20;39.50;;;;;;1608794;73;751;-69
2022/06/13 11:45:57;;;;;;;;;;;25.20;39.40;;;;;;1566497;74;1060;-68
2022/06/13 11:47:59;;;;;;;;;;;25.20;39.20;;;;;;1601648;73;1149;-76
2022/06/13 11:50:01;;;;;;;;;;;25.20;39.20;;;;;;1601206;73;738;-70
2022/06/13 11:52:11;;;;;;;;;;;25.20;39.20;;;;;;1577097;74;1232;-70
2022/06/13 11:54:20;;;;;;;;;;;25.20;39.10;;;;;;1597399;73;677;-70
2022/06/13 11:56:23;;;;;;;;;;;25.20;39.30;;;;;;1596815;73;884;-70
2022/06/13 11:58:26;;;;;;;;;;;25.10;38.90;;;;;;1599293;73;1540;-70
2022/06/13 12:00:35;;;;;;;;;;;25.10;39.10;;;;;;1597981;73;1932;-70
2022/06/13 12:02:42;;;;;;;;;;;25.10;39.20;;;;;;1599091;73;830;-73
2022/06/13 12:04:46;;;;;;;;;;;25.10;39.30;;;;;;1591730;73;596;-71
2022/06/13 12:06:49;;;;;;;;;;;25.10;39.40;;;;;;1597820;73;814;-70
2022/06/13 12:08:51;;;;;;;;;;;25.10;39.40;;;;;;1600860;73;1134;-71
2022/06/13 12:10:57;;;;;;;;;;;25.10;39.50;;;;;;1599372;73;852;-70
2022/06/13 12:12:59;;;;;;;;;;;25.10;39.60;;;;;;1595697;73;1554;-69
2022/06/13 12:15:01;;;;;;;;;;;25.10;39.50;;;;;;1598514;73;741;-71
2022/06/13 12:17:10;;;;;;;;;;;25.10;39.60;;;;;;1597091;73;767;-71
2022/06/13 12:19:20;;;;;;;;;;;25.20;39.70;;;;;;1596214;73;1146;-71
2022/06/13 12:21:26;;;;;;;;;;;25.10;39.70;;;;;;1597085;73;734;-70
2022/06/13 12:23:30;;;;;;;;;;;25.20;39.80;;;;;;1596524;73;713;-70
2022/06/13 12:25:42;;;;;;;;;;;25.20;39.90;;;;;;1596041;73;1302;-71
2022/06/13 12:27:52;;;;;;;;;;;25.20;39.90;;;;;;1601436;73;1467;-70
2022/06/13 12:30:04;;;;;;;;;;;25.10;40.00;;;;;;1592974;73;735;-73
2022/06/13 12:32:23;;;;;;;;;;;25.20;40.00;;;;;;1594654;73;775;-75
2022/06/13 12:34:42;;;;;;;;;;;25.30;39.90;;;;;;1592791;73;759;-71
2022/06/13 12:36:46;;;;;;;;;;;25.30;40.00;;;;;;1598208;73;711;-70
2022/06/13 12:38:49;;;;;;;;;;;25.20;39.80;;;;;;1597520;73;1138;-73
2022/06/13 12:40:53;;;;;;;;;;;25.10;39.80;;;;;;1595974;73;1925;-73
2022/06/13 12:42:56;;;;;;;;;;;25.10;39.80;;;;;;1596013;73;778;-71
2022/06/13 12:45:16;;;;;;;;;;;25.10;39.80;;;;;;1597253;73;2127;-72
2022/06/13 12:47:20;;;;;;;;;;;25.20;39.80;;;;;;1598098;73;820;-70
2022/06/13 12:49:35;;;;;;;;;;;25.20;39.80;;;;;;1570714;72;2749;-64